sensor_id;sensor_type;location;lat;lon;timestamp;P1;durP1;ratioP1;P2;durP2;ratioP2
7247;SDS011;3665;51.034;13.642;2023-05-10T00:03:27;2.40;;;2.20;;
7247;SDS011;3665;51.034;13.642;2023-05-10T00:08:17;3.03;;;2.00;;
7247;SDS011;3665;51.034;13.642;2023-05-10T00:13:03;2.97;;;2.00;;
7247;SDS011;3665;51.034;13.642;2023-05-10T00:17:52;2.57;;;2.37;;
7247;SDS011;3665;51.034;13.642;2023-05-10T00:22:39;3.20;;;2.17;;
7247;SDS011;3665;51.034;13.642;2023-05-10T00:27:32;3.60;;;2.40;;
7247;SDS011;3665;51.034;13.642;2023-05-10T00:32:32;2.43;;;2.23;;
7247;SDS011;3665;51.034;13.642;2023-05-10T00:42:54;3.23;;;2.50;;
7247;SDS011;3665;51.034;13.642;2023-05-10T00:47:44;3.03;;;2.10;;
7247;SDS011;3665;51.034;13.642;2023-05-10T00:52:29;3.37;;;2.00;;
7247;SDS011;3665;51.034;13.642;2023-05-10T01:02:21;2.30;;;2.10;;
7247;SDS011;3665;51.034;13.642;2023-05-10T01:07:10;2.50;;;2.30;;
7247;SDS011;3665;51.034;13.642;2023-05-10T01:11:57;2.17;;;1.97;;
7247;SDS011;3665;51.034;13.642;2023-05-10T01:21:53;5.20;;;2.07;;
7247;SDS011;3665;51.034;13.642;2023-05-10T01:27:02;3.17;;;2.13;;
7247;SDS011;3665;51.034;13.642;2023-05-10T01:32:18;2.13;;;1.97;;
7247;SDS011;3665;51.034;13.642;2023-05-10T01:37:19;2.27;;;2.00;;
7247;SDS011;3665;51.034;13.642;2023-05-10T01:42:23;2.20;;;2.10;;
7247;SDS011;3665;51.034;13.642;2023-05-10T01:47:12;2.10;;;1.90;;
7247;SDS011;3665;51.034;13.642;2023-05-10T01:52:01;2.77;;;2.43;;
7247;SDS011;3665;51.034;13.642;2023-05-10T01:57:02;2.20;;;2.00;;
7247;SDS011;3665;51.034;13.642;2023-05-10T02:01:49;2.70;;;1.93;;
7247;SDS011;3665;51.034;13.642;2023-05-10T02:06:43;2.00;;;1.90;;
7247;SDS011;3665;51.034;13.642;2023-05-10T02:11:46;2.77;;;2.17;;
7247;SDS011;3665;51.034;13.642;2023-05-10T02:16:31;2.47;;;2.27;;
7247;SDS011;3665;51.034;13.642;2023-05-10T02:21:19;2.50;;;2.30;;
7247;SDS011;3665;51.034;13.642;2023-05-10T02:26:04;2.43;;;1.90;;
7247;SDS011;3665;51.034;13.642;2023-05-10T02:30:58;2.30;;;2.03;;
7247;SDS011;3665;51.034;13.642;2023-05-10T02:35:42;3.63;;;2.13;;
7247;SDS011;3665;51.034;13.642;2023-05-10T02:40:29;2.27;;;2.07;;
7247;SDS011;3665;51.034;13.642;2023-05-10T02:45:18;2.10;;;1.90;;
7247;SDS011;3665;51.034;13.642;2023-05-10T02:50:22;2.87;;;2.40;;
7247;SDS011;3665;51.034;13.642;2023-05-10T02:55:11;3.57;;;1.97;;
7247;SDS011;3665;51.034;13.642;2023-05-10T02:59:57;2.60;;;2.40;;
7247;SDS011;3665;51.034;13.642;2023-05-10T03:04:46;2.40;;;2.20;;
7247;SDS011;3665;51.034;13.642;2023-05-10T03:09:36;3.73;;;2.37;;
7247;SDS011;3665;51.034;13.642;2023-05-10T03:14:30;2.33;;;2.13;;
7247;SDS011;3665;51.034;13.642;2023-05-10T03:20:03;3.73;;;2.10;;
7247;SDS011;3665;51.034;13.642;2023-05-10T03:25:17;2.30;;;2.10;;
7247;SDS011;3665;51.034;13.642;2023-05-10T03:30:07;2.30;;;2.10;;
7247;SDS011;3665;51.034;13.642;2023-05-10T03:34:56;2.80;;;2.00;;
7247;SDS011;3665;51.034;13.642;2023-05-10T03:39:44;2.47;;;2.13;;
7247;SDS011;3665;51.034;13.642;2023-05-10T03:44:30;3.97;;;1.73;;
7247;SDS011;3665;51.034;13.642;2023-05-10T03:49:21;2.43;;;1.87;;
7247;SDS011;3665;51.034;13.642;2023-05-10T03:54:07;3.33;;;2.07;;
7247;SDS011;3665;51.034;13.642;2023-05-10T03:58:53;3.17;;;2.37;;
7247;SDS011;3665;51.034;13.642;2023-05-10T04:03:45;2.90;;;2.00;;
7247;SDS011;3665;51.034;13.642;2023-05-10T04:08:29;2.57;;;1.77;;
7247;SDS011;3665;51.034;13.642;2023-05-10T04:13:21;2.00;;;1.73;;
7247;SDS011;3665;51.034;13.642;2023-05-10T04:18:07;2.50;;;2.30;;
7247;SDS011;3665;51.034;13.642;2023-05-10T04:22:55;2.10;;;1.97;;
7247;SDS011;3665;51.034;13.642;2023-05-10T04:27:43;3.60;;;2.00;;
7247;SDS011;3665;51.034;13.642;2023-05-10T04:32:29;2.20;;;2.00;;
7247;SDS011;3665;51.034;13.642;2023-05-10T04:42:41;2.13;;;1.63;;
7247;SDS011;3665;51.034;13.642;2023-05-10T04:47:27;2.10;;;1.70;;
7247;SDS011;3665;51.034;13.642;2023-05-10T04:52:14;2.60;;;1.90;;
7247;SDS011;3665;51.034;13.642;2023-05-10T04:57:02;4.23;;;1.90;;
7247;SDS011;3665;51.034;13.642;2023-05-10T05:06:56;2.10;;;1.90;;
7247;SDS011;3665;51.034;13.642;2023-05-10T05:11:58;2.50;;;2.30;;
7247;SDS011;3665;51.034;13.642;2023-05-10T05:16:50;3.10;;;2.00;;
7247;SDS011;3665;51.034;13.642;2023-05-10T05:21:37;2.00;;;1.90;;
7247;SDS011;3665;51.034;13.642;2023-05-10T05:26:23;2.07;;;1.90;;
7247;SDS011;3665;51.034;13.642;2023-05-10T05:31:19;2.60;;;1.80;;
7247;SDS011;3665;51.034;13.642;2023-05-10T05:36:15;3.33;;;1.80;;
7247;SDS011;3665;51.034;13.642;2023-05-10T05:41:05;2.27;;;1.90;;
7247;SDS011;3665;51.034;13.642;2023-05-10T05:45:51;2.07;;;1.77;;
7247;SDS011;3665;51.034;13.642;2023-05-10T05:50:39;2.07;;;1.70;;
7247;SDS011;3665;51.034;13.642;2023-05-10T06:00:48;2.23;;;1.80;;
7247;SDS011;3665;51.034;13.642;2023-05-10T06:05:34;2.07;;;1.80;;
7247;SDS011;3665;51.034;13.642;2023-05-10T06:10:27;2.00;;;1.77;;
7247;SDS011;3665;51.034;13.642;2023-05-10T06:15:19;1.60;;;1.50;;
7247;SDS011;3665;51.034;13.642;2023-05-10T06:20:17;1.63;;;1.53;;
7247;SDS011;3665;51.034;13.642;2023-05-10T06:25:02;3.17;;;1.80;;
7247;SDS011;3665;51.034;13.642;2023-05-10T06:29:51;2.40;;;1.50;;
7247;SDS011;3665;51.034;13.642;2023-05-10T06:34:53;2.80;;;1.63;;
7247;SDS011;3665;51.034;13.642;2023-05-10T06:39:46;2.30;;;1.50;;
7247;SDS011;3665;51.034;13.642;2023-05-10T06:44:30;2.40;;;1.60;;
7247;SDS011;3665;51.034;13.642;2023-05-10T06:54:23;2.20;;;1.77;;
7247;SDS011;3665;51.034;13.642;2023-05-10T06:59:10;2.60;;;1.90;;
7247;SDS011;3665;51.034;13.642;2023-05-10T07:04:01;2.40;;;1.60;;
7247;SDS011;3665;51.034;13.642;2023-05-10T07:08:46;2.03;;;1.87;;
7247;SDS011;3665;51.034;13.642;2023-05-10T07:13:30;2.50;;;1.97;;
7247;SDS011;3665;51.034;13.642;2023-05-10T07:18:26;2.07;;;1.90;;
7247;SDS011;3665;51.034;13.642;2023-05-10T07:23:42;3.17;;;1.67;;
7247;SDS011;3665;51.034;13.642;2023-05-10T07:28:29;2.00;;;1.80;;
7247;SDS011;3665;51.034;13.642;2023-05-10T07:33:18;2.40;;;1.63;;
7247;SDS011;3665;51.034;13.642;2023-05-10T07:38:08;2.30;;;1.70;;
7247;SDS011;3665;51.034;13.642;2023-05-10T07:42:54;1.67;;;1.57;;
7247;SDS011;3665;51.034;13.642;2023-05-10T07:47:41;3.37;;;2.00;;
7247;SDS011;3665;51.034;13.642;2023-05-10T07:52:25;2.77;;;2.00;;
7247;SDS011;3665;51.034;13.642;2023-05-10T07:57:19;2.27;;;2.03;;
7247;SDS011;3665;51.034;13.642;2023-05-10T08:07:09;1.83;;;1.73;;
7247;SDS011;3665;51.034;13.642;2023-05-10T08:11:59;5.27;;;2.20;;
7247;SDS011;3665;51.034;13.642;2023-05-10T08:16:46;1.93;;;1.67;;
7247;SDS011;3665;51.034;13.642;2023-05-10T08:21:33;1.77;;;1.67;;
7247;SDS011;3665;51.034;13.642;2023-05-10T08:26:23;2.55;;;2.10;;
7247;SDS011;3665;51.034;13.642;2023-05-10T08:31:09;4.57;;;2.10;;
7247;SDS011;3665;51.034;13.642;2023-05-10T08:36:18;2.63;;;1.80;;
7247;SDS011;3665;51.034;13.642;2023-05-10T08:41:05;3.33;;;2.00;;
7247;SDS011;3665;51.034;13.642;2023-05-10T08:45:50;2.30;;;2.10;;
7247;SDS011;3665;51.034;13.642;2023-05-10T08:50:40;2.22;;;1.80;;
7247;SDS011;3665;51.034;13.642;2023-05-10T08:55:26;3.38;;;2.15;;
7247;SDS011;3665;51.034;13.642;2023-05-10T09:00:24;4.45;;;2.13;;
7247;SDS011;3665;51.034;13.642;2023-05-10T09:05:17;3.03;;;2.13;;
7247;SDS011;3665;51.034;13.642;2023-05-10T09:10:07;5.13;;;2.42;;
7247;SDS011;3665;51.034;13.642;2023-05-10T09:14:53;2.85;;;2.13;;
7247;SDS011;3665;51.034;13.642;2023-05-10T09:19:42;2.88;;;2.25;;
7247;SDS011;3665;51.034;13.642;2023-05-10T09:24:35;1.90;;;1.77;;
7247;SDS011;3665;51.034;13.642;2023-05-10T09:29:39;3.42;;;1.92;;
7247;SDS011;3665;51.034;13.642;2023-05-10T09:34:31;2.10;;;2.00;;
7247;SDS011;3665;51.034;13.642;2023-05-10T09:44:39;3.38;;;2.40;;
7247;SDS011;3665;51.034;13.642;2023-05-10T09:49:27;4.95;;;2.45;;
7247;SDS011;3665;51.034;13.642;2023-05-10T09:54:22;4.35;;;2.38;;
7247;SDS011;3665;51.034;13.642;2023-05-10T09:59:10;3.22;;;1.98;;
7247;SDS011;3665;51.034;13.642;2023-05-10T10:03:58;3.03;;;2.20;;
7247;SDS011;3665;51.034;13.642;2023-05-10T10:08:48;2.58;;;2.38;;
7247;SDS011;3665;51.034;13.642;2023-05-10T10:13:50;2.83;;;2.60;;
7247;SDS011;3665;51.034;13.642;2023-05-10T10:18:39;2.53;;;2.22;;
7247;SDS011;3665;51.034;13.642;2023-05-10T10:23:33;3.42;;;2.08;;
7247;SDS011;3665;51.034;13.642;2023-05-10T10:28:34;2.45;;;2.25;;
7247;SDS011;3665;51.034;13.642;2023-05-10T10:33:33;3.50;;;2.15;;
7247;SDS011;3665;51.034;13.642;2023-05-10T10:38:38;2.13;;;2.03;;
7247;SDS011;3665;51.034;13.642;2023-05-10T10:43:43;2.78;;;2.58;;
7247;SDS011;3665;51.034;13.642;2023-05-10T10:48:30;2.88;;;2.22;;
7247;SDS011;3665;51.034;13.642;2023-05-10T10:53:19;3.15;;;2.63;;
7247;SDS011;3665;51.034;13.642;2023-05-10T10:58:09;4.03;;;2.63;;
7247;SDS011;3665;51.034;13.642;2023-05-10T11:03:11;2.53;;;2.10;;
7247;SDS011;3665;51.034;13.642;2023-05-10T11:08:08;3.13;;;2.42;;
7247;SDS011;3665;51.034;13.642;2023-05-10T11:18:32;2.45;;;2.25;;
7247;SDS011;3665;51.034;13.642;2023-05-10T11:23:31;2.53;;;2.33;;
7247;SDS011;3665;51.034;13.642;2023-05-10T11:28:16;2.42;;;2.22;;
7247;SDS011;3665;51.034;13.642;2023-05-10T11:33:02;2.60;;;2.40;;
7247;SDS011;3665;51.034;13.642;2023-05-10T11:37:52;3.53;;;2.78;;
7247;SDS011;3665;51.034;13.642;2023-05-10T11:42:38;3.90;;;2.55;;
7247;SDS011;3665;51.034;13.642;2023-05-10T11:47:25;5.07;;;2.80;;
7247;SDS011;3665;51.034;13.642;2023-05-10T11:52:18;3.30;;;2.83;;
7247;SDS011;3665;51.034;13.642;2023-05-10T11:57:03;3.85;;;2.55;;
7247;SDS011;3665;51.034;13.642;2023-05-10T12:01:50;3.28;;;2.80;;
7247;SDS011;3665;51.034;13.642;2023-05-10T12:06:42;2.67;;;2.47;;
7247;SDS011;3665;51.034;13.642;2023-05-10T12:17:06;2.83;;;2.60;;
7247;SDS011;3665;51.034;13.642;2023-05-10T12:22:27;3.10;;;2.80;;
7247;SDS011;3665;51.034;13.642;2023-05-10T12:27:11;2.80;;;2.55;;
7247;SDS011;3665;51.034;13.642;2023-05-10T12:31:59;5.63;;;2.28;;
7247;SDS011;3665;51.034;13.642;2023-05-10T12:36:47;3.72;;;2.60;;
7247;SDS011;3665;51.034;13.642;2023-05-10T12:41:35;3.75;;;2.38;;
7247;SDS011;3665;51.034;13.642;2023-05-10T12:46:25;3.00;;;2.73;;
7247;SDS011;3665;51.034;13.642;2023-05-10T12:51:22;3.63;;;2.67;;
7247;SDS011;3665;51.034;13.642;2023-05-10T12:56:17;3.80;;;3.13;;
7247;SDS011;3665;51.034;13.642;2023-05-10T13:01:10;3.20;;;2.90;;
7247;SDS011;3665;51.034;13.642;2023-05-10T13:06:07;3.50;;;2.50;;
7247;SDS011;3665;51.034;13.642;2023-05-10T13:10:50;3.10;;;2.80;;
7247;SDS011;3665;51.034;13.642;2023-05-10T13:15:50;5.80;;;3.47;;
7247;SDS011;3665;51.034;13.642;2023-05-10T13:20:38;4.47;;;3.50;;
7247;SDS011;3665;51.034;13.642;2023-05-10T13:25:28;9.30;;;4.17;;
7247;SDS011;3665;51.034;13.642;2023-05-10T13:30:17;3.23;;;2.80;;
7247;SDS011;3665;51.034;13.642;2023-05-10T13:35:11;4.97;;;4.00;;
7247;SDS011;3665;51.034;13.642;2023-05-10T13:40:01;4.05;;;3.60;;
7247;SDS011;3665;51.034;13.642;2023-05-10T13:44:46;3.15;;;2.78;;
7247;SDS011;3665;51.034;13.642;2023-05-10T13:49:32;4.55;;;3.83;;
7247;SDS011;3665;51.034;13.642;2023-05-10T13:54:22;3.38;;;3.08;;
7247;SDS011;3665;51.034;13.642;2023-05-10T13:59:13;3.80;;;2.92;;
7247;SDS011;3665;51.034;13.642;2023-05-10T14:03:57;5.40;;;2.80;;
7247;SDS011;3665;51.034;13.642;2023-05-10T14:08:45;4.80;;;3.10;;
7247;SDS011;3665;51.034;13.642;2023-05-10T14:13:35;3.72;;;3.42;;
7247;SDS011;3665;51.034;13.642;2023-05-10T14:18:18;3.30;;;3.00;;
7247;SDS011;3665;51.034;13.642;2023-05-10T14:23:09;3.40;;;3.10;;
7247;SDS011;3665;51.034;13.642;2023-05-10T14:27:57;3.53;;;3.20;;
7247;SDS011;3665;51.034;13.642;2023-05-10T14:32:49;4.33;;;2.93;;
7247;SDS011;3665;51.034;13.642;2023-05-10T14:37:35;5.77;;;3.40;;
7247;SDS011;3665;51.034;13.642;2023-05-10T14:42:22;7.60;;;2.87;;
7247;SDS011;3665;51.034;13.642;2023-05-10T14:47:10;4.67;;;2.33;;
7247;SDS011;3665;51.034;13.642;2023-05-10T14:52:05;3.07;;;2.67;;
7247;SDS011;3665;51.034;13.642;2023-05-10T14:56:58;2.13;;;2.03;;
7247;SDS011;3665;51.034;13.642;2023-05-10T15:01:52;2.30;;;2.10;;
7247;SDS011;3665;51.034;13.642;2023-05-10T15:06:36;4.33;;;2.57;;
7247;SDS011;3665;51.034;13.642;2023-05-10T15:11:28;3.23;;;2.00;;
7247;SDS011;3665;51.034;13.642;2023-05-10T15:16:18;3.60;;;2.40;;
7247;SDS011;3665;51.034;13.642;2023-05-10T15:21:03;2.70;;;2.10;;
7247;SDS011;3665;51.034;13.642;2023-05-10T15:25:47;5.03;;;2.67;;
7247;SDS011;3665;51.034;13.642;2023-05-10T15:30:39;4.70;;;2.33;;
7247;SDS011;3665;51.034;13.642;2023-05-10T15:35:28;3.23;;;2.50;;
7247;SDS011;3665;51.034;13.642;2023-05-10T15:40:15;3.00;;;2.60;;
7247;SDS011;3665;51.034;13.642;2023-05-10T15:45:04;4.17;;;2.83;;
7247;SDS011;3665;51.034;13.642;2023-05-10T15:49:50;3.13;;;2.70;;
7247;SDS011;3665;51.034;13.642;2023-05-10T15:54:41;3.47;;;2.60;;
7247;SDS011;3665;51.034;13.642;2023-05-10T15:59:25;5.47;;;2.90;;
7247;SDS011;3665;51.034;13.642;2023-05-10T16:04:10;2.80;;;2.57;;
7247;SDS011;3665;51.034;13.642;2023-05-10T16:09:05;4.00;;;3.20;;
7247;SDS011;3665;51.034;13.642;2023-05-10T16:13:49;4.73;;;3.10;;
7247;SDS011;3665;51.034;13.642;2023-05-10T16:18:34;3.40;;;3.10;;
7247;SDS011;3665;51.034;13.642;2023-05-10T16:23:20;3.40;;;3.10;;
7247;SDS011;3665;51.034;13.642;2023-05-10T16:28:15;3.53;;;3.10;;
7247;SDS011;3665;51.034;13.642;2023-05-10T16:33:06;5.83;;;3.67;;
7247;SDS011;3665;51.034;13.642;2023-05-10T16:37:49;7.77;;;3.33;;
7247;SDS011;3665;51.034;13.642;2023-05-10T16:42:35;4.10;;;3.03;;
7247;SDS011;3665;51.034;13.642;2023-05-10T16:47:35;4.13;;;3.53;;
7247;SDS011;3665;51.034;13.642;2023-05-10T16:52:32;3.83;;;2.80;;
7247;SDS011;3665;51.034;13.642;2023-05-10T16:57:18;3.70;;;3.30;;
7247;SDS011;3665;51.034;13.642;2023-05-10T17:02:08;6.27;;;4.50;;
7247;SDS011;3665;51.034;13.642;2023-05-10T17:06:54;3.37;;;3.07;;
7247;SDS011;3665;51.034;13.642;2023-05-10T17:11:41;3.37;;;3.07;;
7247;SDS011;3665;51.034;13.642;2023-05-10T17:16:25;3.83;;;3.03;;
7247;SDS011;3665;51.034;13.642;2023-05-10T17:21:16;2.63;;;2.43;;
7247;SDS011;3665;51.034;13.642;2023-05-10T17:26:06;2.47;;;2.23;;
7247;SDS011;3665;51.034;13.642;2023-05-10T17:30:59;3.83;;;2.57;;
7247;SDS011;3665;51.034;13.642;2023-05-10T17:35:43;2.93;;;2.73;;
7247;SDS011;3665;51.034;13.642;2023-05-10T17:40:32;2.77;;;2.53;;
7247;SDS011;3665;51.034;13.642;2023-05-10T17:45:17;2.63;;;2.43;;
7247;SDS011;3665;51.034;13.642;2023-05-10T17:50:11;3.00;;;2.70;;
7247;SDS011;3665;51.034;13.642;2023-05-10T17:54:55;2.67;;;2.47;;
7247;SDS011;3665;51.034;13.642;2023-05-10T17:59:39;2.10;;;1.50;;
7247;SDS011;3665;51.034;13.642;2023-05-10T18:04:24;1.83;;;1.73;;
7247;SDS011;3665;51.034;13.642;2023-05-10T18:09:12;2.27;;;1.80;;
7247;SDS011;3665;51.034;13.642;2023-05-10T18:14:06;2.40;;;1.70;;
7247;SDS011;3665;51.034;13.642;2023-05-10T18:18:56;1.60;;;1.50;;
7247;SDS011;3665;51.034;13.642;2023-05-10T18:23:43;1.80;;;1.70;;
7247;SDS011;3665;51.034;13.642;2023-05-10T18:28:33;2.87;;;1.60;;
7247;SDS011;3665;51.034;13.642;2023-05-10T18:33:17;2.83;;;2.00;;
7247;SDS011;3665;51.034;13.642;2023-05-10T18:38:03;2.13;;;1.73;;
7247;SDS011;3665;51.034;13.642;2023-05-10T18:42:55;2.60;;;1.80;;
7247;SDS011;3665;51.034;13.642;2023-05-10T18:47:41;1.70;;;1.60;;
7247;SDS011;3665;51.034;13.642;2023-05-10T18:52:26;1.97;;;1.87;;
7247;SDS011;3665;51.034;13.642;2023-05-10T18:57:13;2.10;;;1.90;;
7247;SDS011;3665;51.034;13.642;2023-05-10T19:02:10;3.57;;;2.30;;
7247;SDS011;3665;51.034;13.642;2023-05-10T19:06:54;2.50;;;2.30;;
7247;SDS011;3665;51.034;13.642;2023-05-10T19:11:37;2.73;;;2.53;;
7247;SDS011;3665;51.034;13.642;2023-05-10T19:16:25;4.00;;;2.80;;
7247;SDS011;3665;51.034;13.642;2023-05-10T19:21:19;2.40;;;2.20;;
7247;SDS011;3665;51.034;13.642;2023-05-10T19:26:05;2.90;;;2.60;;
7247;SDS011;3665;51.034;13.642;2023-05-10T19:30:52;2.80;;;2.50;;
7247;SDS011;3665;51.034;13.642;2023-05-10T19:35:35;3.47;;;3.03;;
7247;SDS011;3665;51.034;13.642;2023-05-10T19:40:35;3.33;;;3.07;;
7247;SDS011;3665;51.034;13.642;2023-05-10T19:45:18;3.00;;;2.50;;
7247;SDS011;3665;51.034;13.642;2023-05-10T19:50:02;3.33;;;3.10;;
7247;SDS011;3665;51.034;13.642;2023-05-10T19:54:55;4.13;;;3.43;;
7247;SDS011;3665;51.034;13.642;2023-05-10T19:59:43;5.43;;;3.53;;
7247;SDS011;3665;51.034;13.642;2023-05-10T20:04:28;3.67;;;3.37;;
7247;SDS011;3665;51.034;13.642;2023-05-10T20:09:21;2.83;;;2.63;;
7247;SDS011;3665;51.034;13.642;2023-05-10T20:14:08;2.83;;;2.47;;
7247;SDS011;3665;51.034;13.642;2023-05-10T20:18:55;3.00;;;2.77;;
7247;SDS011;3665;51.034;13.642;2023-05-10T20:23:44;2.90;;;2.70;;
7247;SDS011;3665;51.034;13.642;2023-05-10T20:28:33;3.53;;;3.20;;
7247;SDS011;3665;51.034;13.642;2023-05-10T20:33:17;3.70;;;3.10;;
7247;SDS011;3665;51.034;13.642;2023-05-10T20:38:09;3.47;;;3.17;;
7247;SDS011;3665;51.034;13.642;2023-05-10T20:42:55;4.37;;;3.80;;
7247;SDS011;3665;51.034;13.642;2023-05-10T20:47:44;3.80;;;3.47;;
7247;SDS011;3665;51.034;13.642;2023-05-10T20:52:34;4.47;;;4.07;;
7247;SDS011;3665;51.034;13.642;2023-05-10T20:57:18;3.83;;;3.53;;
7247;SDS011;3665;51.034;13.642;2023-05-10T21:02:08;5.40;;;3.67;;
7247;SDS011;3665;51.034;13.642;2023-05-10T21:06:51;4.10;;;3.73;;
7247;SDS011;3665;51.034;13.642;2023-05-10T21:11:42;4.53;;;4.13;;
7247;SDS011;3665;51.034;13.642;2023-05-10T21:16:35;4.23;;;3.80;;
7247;SDS011;3665;51.034;13.642;2023-05-10T21:21:18;5.70;;;4.67;;
7247;SDS011;3665;51.034;13.642;2023-05-10T21:26:02;5.10;;;4.20;;
7247;SDS011;3665;51.034;13.642;2023-05-10T21:30:51;5.07;;;4.57;;
7247;SDS011;3665;51.034;13.642;2023-05-10T21:40:56;5.70;;;5.20;;
7247;SDS011;3665;51.034;13.642;2023-05-10T21:45:53;5.43;;;4.80;;
7247;SDS011;3665;51.034;13.642;2023-05-10T21:50:40;6.20;;;5.60;;
7247;SDS011;3665;51.034;13.642;2023-05-10T21:55:28;6.60;;;5.73;;
7247;SDS011;3665;51.034;13.642;2023-05-10T22:00:14;6.83;;;6.23;;
7247;SDS011;3665;51.034;13.642;2023-05-10T22:05:00;6.03;;;5.43;;
7247;SDS011;3665;51.034;13.642;2023-05-10T22:09:53;5.67;;;5.13;;
7247;SDS011;3665;51.034;13.642;2023-05-10T22:14:40;6.47;;;5.77;;
7247;SDS011;3665;51.034;13.642;2023-05-10T22:19:27;6.83;;;5.90;;
7247;SDS011;3665;51.034;13.642;2023-05-10T22:24:12;7.33;;;6.07;;
7247;SDS011;3665;51.034;13.642;2023-05-10T22:28:58;5.80;;;5.10;;
7247;SDS011;3665;51.034;13.642;2023-05-10T22:33:51;7.17;;;6.47;;
7247;SDS011;3665;51.034;13.642;2023-05-10T22:38:34;7.20;;;6.20;;
7247;SDS011;3665;51.034;13.642;2023-05-10T22:43:25;7.93;;;6.70;;
7247;SDS011;3665;51.034;13.642;2023-05-10T22:48:16;7.77;;;6.97;;
7247;SDS011;3665;51.034;13.642;2023-05-10T22:53:02;7.63;;;6.93;;
7247;SDS011;3665;51.034;13.642;2023-05-10T22:57:53;7.43;;;6.73;;
7247;SDS011;3665;51.034;13.642;2023-05-10T23:02:39;6.90;;;6.20;;
7247;SDS011;3665;51.034;13.642;2023-05-10T23:07:28;7.43;;;6.43;;
7247;SDS011;3665;51.034;13.642;2023-05-10T23:12:16;6.70;;;6.07;;
7247;SDS011;3665;51.034;13.642;2023-05-10T23:17:06;7.10;;;6.33;;
7247;SDS011;3665;51.034;13.642;2023-05-10T23:21:52;7.10;;;6.23;;
7247;SDS011;3665;51.034;13.642;2023-05-10T23:26:38;7.10;;;6.50;;
7247;SDS011;3665;51.034;13.642;2023-05-10T23:31:27;6.30;;;5.70;;
7247;SDS011;3665;51.034;13.642;2023-05-10T23:36:18;8.33;;;7.53;;
7247;SDS011;3665;51.034;13.642;2023-05-10T23:41:04;7.40;;;6.60;;
7247;SDS011;3665;51.034;13.642;2023-05-10T23:45:53;7.03;;;6.23;;
7247;SDS011;3665;51.034;13.642;2023-05-10T23:50:42;7.53;;;6.53;;
7247;SDS011;3665;51.034;13.642;2023-05-10T23:55:29;7.00;;;6.40;;
